Hlavní strana
METAR-TAF:

METAR-TAF

Letiště :

Córdoba, Argentina

zeměpisná šířka: 31-19S, zeměpisná délka: 064-13W, výška: 484 m

Aktuální stav počasí

Zpráva byla vytvořena před 14 minutami, v 23:00 UTC
Severoseverovýchodní vítr 8 kt
Teplota 12°C
Vlhkost vzduchu 58%
Tlak 1018 hPa
Viditelnost 10 km a více
Žádná oblačnost pod 1500 m, nevyskytují se cumulonimby.

METAR: SACO 182300Z 02008KT CAVOK 12/04 Q1018 NOSIG

Čas: 20:14 (23:14 UTC)

Předpověď počasí

Zpráva byla vytvořena před 6 hodinami a 14 minutami, v 17:00 UTC
Předpověď platná od 18 v 18 UTC do 19 v 18 UTC
Severoseverovýchodní vítr 10 kt
Viditelnost 10 km a více
Polojasno ve výšce 4000 ft
Změna
od 19 v 06 UTC do 19 v 09 UTC
Severní vítr 10 kt

TAF: SACO 181700Z 1818/1918 02010KT 9999 SCT040 TX23/1918Z TNM02/1909Z BECMG 1906/1909 36010KT

Stav a předpovědi počasí z více než 4 000 letišť (zprávy METAR a TAF).

Červené a žluté tečky na mapě představují dostupné meteorologické stanice.

Když kurzor umístíte na tečku, zobrazí se název stanice.

Pak kliknutím zobrazíte stav a předpověď počasí.

Chcete-li změnit mapu, kliknutím na zelené tlačítko se znaménkem +mapu přiblížíte, kliknutím na zelené tlačítko se znaménkem – mapu oddálíte a kliknutím na zelené šipky přejdete na sousední mapy.


METAR-TAF: